sensor_id;sensor_type;location;lat;lon;timestamp;temperature;humidity
40340;DHT22;26044;50.864;20.658;2023-04-24T00:01:06;9.80;99.90
40340;DHT22;26044;50.864;20.658;2023-04-24T00:03:34;9.80;99.90
40340;DHT22;26044;50.864;20.658;2023-04-24T00:06:02;9.80;99.90
40340;DHT22;26044;50.864;20.658;2023-04-24T00:08:29;9.70;99.90
40340;DHT22;26044;50.864;20.658;2023-04-24T00:10:56;9.80;99.90
40340;DHT22;26044;50.864;20.658;2023-04-24T00:13:23;9.70;99.90
40340;DHT22;26044;50.864;20.658;2023-04-24T00:15:50;9.60;99.90
40340;DHT22;26044;50.864;20.658;2023-04-24T00:18:17;9.60;99.90
40340;DHT22;26044;50.864;20.658;2023-04-24T00:20:44;9.70;99.90
40340;DHT22;26044;50.864;20.658;2023-04-24T00:23:11;9.70;99.90
40340;DHT22;26044;50.864;20.658;2023-04-24T00:25:38;9.60;99.90
40340;DHT22;26044;50.864;20.658;2023-04-24T00:28:05;9.60;99.90
40340;DHT22;26044;50.864;20.658;2023-04-24T00:30:32;9.50;99.90
40340;DHT22;26044;50.864;20.658;2023-04-24T00:32:59;9.50;99.90
40340;DHT22;26044;50.864;20.658;2023-04-24T00:35:26;9.50;99.90
40340;DHT22;26044;50.864;20.658;2023-04-24T00:37:52;9.50;99.90
40340;DHT22;26044;50.864;20.658;2023-04-24T00:40:19;9.50;99.90
40340;DHT22;26044;50.864;20.658;2023-04-24T00:42:46;9.40;99.90
40340;DHT22;26044;50.864;20.658;2023-04-24T00:45:13;9.40;99.90
40340;DHT22;26044;50.864;20.658;2023-04-24T00:47:41;9.40;99.90
40340;DHT22;26044;50.864;20.658;2023-04-24T00:50:08;9.40;99.90
40340;DHT22;26044;50.864;20.658;2023-04-24T00:52:35;9.40;99.90
40340;DHT22;26044;50.864;20.658;2023-04-24T00:55:04;9.30;99.90
40340;DHT22;26044;50.864;20.658;2023-04-24T00:57:30;9.30;99.90
40340;DHT22;26044;50.864;20.658;2023-04-24T00:59:57;9.30;99.90
40340;DHT22;26044;50.864;20.658;2023-04-24T01:02:24;9.20;99.90
40340;DHT22;26044;50.864;20.658;2023-04-24T01:04:52;9.20;99.90
40340;DHT22;26044;50.864;20.658;2023-04-24T01:07:20;9.20;99.90
40340;DHT22;26044;50.864;20.658;2023-04-24T01:09:48;9.20;99.90
40340;DHT22;26044;50.864;20.658;2023-04-24T01:12:18;9.20;99.90
40340;DHT22;26044;50.864;20.658;2023-04-24T01:14:45;9.20;99.90
40340;DHT22;26044;50.864;20.658;2023-04-24T01:17:12;9.10;99.90
40340;DHT22;26044;50.864;20.658;2023-04-24T01:19:39;9.20;99.90
40340;DHT22;26044;50.864;20.658;2023-04-24T01:22:11;9.10;99.90
40340;DHT22;26044;50.864;20.658;2023-04-24T01:24:38;9.10;99.90
40340;DHT22;26044;50.864;20.658;2023-04-24T01:27:05;9.10;99.90
40340;DHT22;26044;50.864;20.658;2023-04-24T01:29:32;9.10;99.90
40340;DHT22;26044;50.864;20.658;2023-04-24T01:31:59;9.10;99.90
40340;DHT22;26044;50.864;20.658;2023-04-24T01:34:26;9.10;99.90
40340;DHT22;26044;50.864;20.658;2023-04-24T01:36:54;9.10;99.90
40340;DHT22;26044;50.864;20.658;2023-04-24T01:39:20;9.10;99.90
40340;DHT22;26044;50.864;20.658;2023-04-24T01:41:49;9.00;99.90
40340;DHT22;26044;50.864;20.658;2023-04-24T01:44:17;9.00;99.90
40340;DHT22;26044;50.864;20.658;2023-04-24T01:46:44;9.00;99.90
40340;DHT22;26044;50.864;20.658;2023-04-24T01:49:11;9.00;99.90
40340;DHT22;26044;50.864;20.658;2023-04-24T01:51:38;8.90;99.90
40340;DHT22;26044;50.864;20.658;2023-04-24T01:54:05;8.90;99.90
40340;DHT22;26044;50.864;20.658;2023-04-24T01:56:33;8.90;99.90
40340;DHT22;26044;50.864;20.658;2023-04-24T01:59:03;8.90;99.90
40340;DHT22;26044;50.864;20.658;2023-04-24T02:01:35;8.90;99.90
40340;DHT22;26044;50.864;20.658;2023-04-24T02:04:11;8.80;99.90
40340;DHT22;26044;50.864;20.658;2023-04-24T02:06:38;8.70;99.90
40340;DHT22;26044;50.864;20.658;2023-04-24T02:09:04;8.80;99.90
40340;DHT22;26044;50.864;20.658;2023-04-24T02:11:31;8.70;99.90
40340;DHT22;26044;50.864;20.658;2023-04-24T02:13:58;8.70;99.90
40340;DHT22;26044;50.864;20.658;2023-04-24T02:16:25;8.70;99.90
40340;DHT22;26044;50.864;20.658;2023-04-24T02:18:52;8.70;99.90
40340;DHT22;26044;50.864;20.658;2023-04-24T02:21:19;8.70;99.90
40340;DHT22;26044;50.864;20.658;2023-04-24T02:23:45;8.60;99.90
40340;DHT22;26044;50.864;20.658;2023-04-24T02:26:12;8.60;99.90
40340;DHT22;26044;50.864;20.658;2023-04-24T02:28:39;8.60;99.90
40340;DHT22;26044;50.864;20.658;2023-04-24T02:31:06;8.50;99.90
40340;DHT22;26044;50.864;20.658;2023-04-24T02:33:33;8.50;99.90
40340;DHT22;26044;50.864;20.658;2023-04-24T02:36:00;8.50;99.90
40340;DHT22;26044;50.864;20.658;2023-04-24T02:38:27;8.40;99.90
40340;DHT22;26044;50.864;20.658;2023-04-24T02:40:53;8.50;99.90
40340;DHT22;26044;50.864;20.658;2023-04-24T02:43:20;8.40;99.90
40340;DHT22;26044;50.864;20.658;2023-04-24T02:45:47;8.50;99.90
40340;DHT22;26044;50.864;20.658;2023-04-24T02:48:14;8.40;99.90
40340;DHT22;26044;50.864;20.658;2023-04-24T02:50:43;8.40;99.90
40340;DHT22;26044;50.864;20.658;2023-04-24T02:53:10;8.40;99.90
40340;DHT22;26044;50.864;20.658;2023-04-24T02:55:37;8.50;99.90
40340;DHT22;26044;50.864;20.658;2023-04-24T02:58:03;8.50;99.90
40340;DHT22;26044;50.864;20.658;2023-04-24T03:00:30;8.50;99.90
40340;DHT22;26044;50.864;20.658;2023-04-24T03:02:57;8.50;99.90
40340;DHT22;26044;50.864;20.658;2023-04-24T03:05:24;8.40;99.90
40340;DHT22;26044;50.864;20.658;2023-04-24T03:07:50;8.40;99.90
40340;DHT22;26044;50.864;20.658;2023-04-24T03:10:19;8.50;99.90
40340;DHT22;26044;50.864;20.658;2023-04-24T03:12:46;8.50;99.90
40340;DHT22;26044;50.864;20.658;2023-04-24T03:15:12;8.50;99.90
40340;DHT22;26044;50.864;20.658;2023-04-24T03:17:39;8.50;99.90
40340;DHT22;26044;50.864;20.658;2023-04-24T03:20:07;8.50;99.90
40340;DHT22;26044;50.864;20.658;2023-04-24T03:22:35;8.40;99.90
40340;DHT22;26044;50.864;20.658;2023-04-24T03:25:01;8.50;99.90
40340;DHT22;26044;50.864;20.658;2023-04-24T03:27:28;8.40;99.90
40340;DHT22;26044;50.864;20.658;2023-04-24T03:29:55;8.40;99.90
40340;DHT22;26044;50.864;20.658;2023-04-24T03:32:22;8.40;99.90
40340;DHT22;26044;50.864;20.658;2023-04-24T03:34:49;8.30;99.90
40340;DHT22;26044;50.864;20.658;2023-04-24T03:37:16;8.30;99.90
40340;DHT22;26044;50.864;20.658;2023-04-24T03:39:43;8.30;99.90
40340;DHT22;26044;50.864;20.658;2023-04-24T03:42:11;8.30;99.90
40340;DHT22;26044;50.864;20.658;2023-04-24T03:44:37;8.30;99.90
40340;DHT22;26044;50.864;20.658;2023-04-24T03:47:04;8.30;99.90
40340;DHT22;26044;50.864;20.658;2023-04-24T03:49:31;8.20;99.90
40340;DHT22;26044;50.864;20.658;2023-04-24T03:51:58;8.20;99.90
40340;DHT22;26044;50.864;20.658;2023-04-24T03:54:25;8.20;99.90
40340;DHT22;26044;50.864;20.658;2023-04-24T03:56:51;8.20;99.90
40340;DHT22;26044;50.864;20.658;2023-04-24T03:59:18;8.30;99.90
40340;DHT22;26044;50.864;20.658;2023-04-24T04:01:45;8.30;99.90
40340;DHT22;26044;50.864;20.658;2023-04-24T04:04:12;8.30;99.90
40340;DHT22;26044;50.864;20.658;2023-04-24T04:06:39;8.30;99.90
40340;DHT22;26044;50.864;20.658;2023-04-24T04:09:07;8.30;99.90
40340;DHT22;26044;50.864;20.658;2023-04-24T04:11:35;8.50;99.90
40340;DHT22;26044;50.864;20.658;2023-04-24T04:14:02;8.50;99.90
40340;DHT22;26044;50.864;20.658;2023-04-24T04:16:28;8.50;99.90
40340;DHT22;26044;50.864;20.658;2023-04-24T04:18:55;8.50;99.90
40340;DHT22;26044;50.864;20.658;2023-04-24T04:21:22;8.60;99.90
40340;DHT22;26044;50.864;20.658;2023-04-24T04:23:49;8.60;99.90
40340;DHT22;26044;50.864;20.658;2023-04-24T04:26:16;8.70;99.90
40340;DHT22;26044;50.864;20.658;2023-04-24T04:28:42;8.70;99.90
40340;DHT22;26044;50.864;20.658;2023-04-24T04:31:11;8.80;99.90
40340;DHT22;26044;50.864;20.658;2023-04-24T04:33:37;8.90;99.90
40340;DHT22;26044;50.864;20.658;2023-04-24T04:36:06;8.90;99.90
40340;DHT22;26044;50.864;20.658;2023-04-24T04:38:32;9.00;99.90
40340;DHT22;26044;50.864;20.658;2023-04-24T04:41:00;9.00;99.90
40340;DHT22;26044;50.864;20.658;2023-04-24T04:43:27;9.10;99.90
40340;DHT22;26044;50.864;20.658;2023-04-24T04:45:53;9.30;99.90
40340;DHT22;26044;50.864;20.658;2023-04-24T04:48:22;9.30;99.90
40340;DHT22;26044;50.864;20.658;2023-04-24T04:50:49;9.50;99.90
40340;DHT22;26044;50.864;20.658;2023-04-24T04:53:16;9.50;99.90
40340;DHT22;26044;50.864;20.658;2023-04-24T04:55:42;9.50;99.90
40340;DHT22;26044;50.864;20.658;2023-04-24T04:58:09;9.60;99.90
40340;DHT22;26044;50.864;20.658;2023-04-24T05:00:36;9.70;99.90
40340;DHT22;26044;50.864;20.658;2023-04-24T05:03:03;9.80;99.90
40340;DHT22;26044;50.864;20.658;2023-04-24T05:05:45;9.90;99.90
40340;DHT22;26044;50.864;20.658;2023-04-24T05:08:12;10.00;99.90
40340;DHT22;26044;50.864;20.658;2023-04-24T05:10:51;10.00;99.90
40340;DHT22;26044;50.864;20.658;2023-04-24T05:13:18;10.10;99.90
40340;DHT22;26044;50.864;20.658;2023-04-24T05:15:57;10.20;99.90
40340;DHT22;26044;50.864;20.658;2023-04-24T05:18:24;10.30;99.90
40340;DHT22;26044;50.864;20.658;2023-04-24T05:20:51;10.40;99.90
40340;DHT22;26044;50.864;20.658;2023-04-24T05:23:18;10.50;99.90
40340;DHT22;26044;50.864;20.658;2023-04-24T05:25:45;10.60;99.90
40340;DHT22;26044;50.864;20.658;2023-04-24T05:28:12;10.70;99.90
40340;DHT22;26044;50.864;20.658;2023-04-24T05:30:39;10.80;99.90
40340;DHT22;26044;50.864;20.658;2023-04-24T05:33:06;10.90;99.90
40340;DHT22;26044;50.864;20.658;2023-04-24T05:35:33;11.00;99.90
40340;DHT22;26044;50.864;20.658;2023-04-24T05:38:09;11.10;99.90
40340;DHT22;26044;50.864;20.658;2023-04-24T05:40:40;11.20;99.90
40340;DHT22;26044;50.864;20.658;2023-04-24T05:43:07;11.40;99.90
40340;DHT22;26044;50.864;20.658;2023-04-24T05:45:33;11.50;99.90
40340;DHT22;26044;50.864;20.658;2023-04-24T05:48:03;11.60;99.90
40340;DHT22;26044;50.864;20.658;2023-04-24T05:50:34;11.70;99.90
40340;DHT22;26044;50.864;20.658;2023-04-24T05:53:04;11.80;99.90
40340;DHT22;26044;50.864;20.658;2023-04-24T05:55:31;12.00;99.90
40340;DHT22;26044;50.864;20.658;2023-04-24T05:57:58;12.20;99.90
40340;DHT22;26044;50.864;20.658;2023-04-24T06:00:27;12.30;99.90
40340;DHT22;26044;50.864;20.658;2023-04-24T06:02:55;12.40;99.90
40340;DHT22;26044;50.864;20.658;2023-04-24T06:05:22;12.50;99.90
40340;DHT22;26044;50.864;20.658;2023-04-24T06:07:50;12.60;99.90
40340;DHT22;26044;50.864;20.658;2023-04-24T06:10:19;12.80;99.90
40340;DHT22;26044;50.864;20.658;2023-04-24T06:12:48;12.90;99.90
40340;DHT22;26044;50.864;20.658;2023-04-24T06:15:15;13.00;99.90
40340;DHT22;26044;50.864;20.658;2023-04-24T06:17:44;13.20;99.90
40340;DHT22;26044;50.864;20.658;2023-04-24T06:20:11;13.30;99.90
40340;DHT22;26044;50.864;20.658;2023-04-24T06:22:48;13.40;99.90
40340;DHT22;26044;50.864;20.658;2023-04-24T06:25:20;13.50;99.90
40340;DHT22;26044;50.864;20.658;2023-04-24T06:27:52;13.70;99.90
40340;DHT22;26044;50.864;20.658;2023-04-24T06:30:21;13.80;99.90
40340;DHT22;26044;50.864;20.658;2023-04-24T06:32:48;14.00;99.90
40340;DHT22;26044;50.864;20.658;2023-04-24T06:35:15;14.10;99.90
40340;DHT22;26044;50.864;20.658;2023-04-24T06:37:48;14.10;99.90
40340;DHT22;26044;50.864;20.658;2023-04-24T06:40:23;14.20;99.90
40340;DHT22;26044;50.864;20.658;2023-04-24T06:42:49;14.40;99.90
40340;DHT22;26044;50.864;20.658;2023-04-24T06:45:20;14.40;99.90
40340;DHT22;26044;50.864;20.658;2023-04-24T06:47:51;14.50;99.90
40340;DHT22;26044;50.864;20.658;2023-04-24T06:50:18;14.60;99.90
40340;DHT22;26044;50.864;20.658;2023-04-24T06:52:50;14.80;99.90
40340;DHT22;26044;50.864;20.658;2023-04-24T06:55:17;14.90;99.90
40340;DHT22;26044;50.864;20.658;2023-04-24T06:57:44;14.90;99.90
40340;DHT22;26044;50.864;20.658;2023-04-24T07:00:13;15.00;99.90
40340;DHT22;26044;50.864;20.658;2023-04-24T07:02:40;15.20;99.90
40340;DHT22;26044;50.864;20.658;2023-04-24T07:05:07;15.30;98.70
40340;DHT22;26044;50.864;20.658;2023-04-24T07:07:35;15.40;99.10
40340;DHT22;26044;50.864;20.658;2023-04-24T07:10:05;15.50;98.00
40340;DHT22;26044;50.864;20.658;2023-04-24T07:12:32;15.60;98.20
40340;DHT22;26044;50.864;20.658;2023-04-24T07:15:00;15.70;97.20
40340;DHT22;26044;50.864;20.658;2023-04-24T07:17:27;15.80;98.70
40340;DHT22;26044;50.864;20.658;2023-04-24T07:19:53;15.70;97.00
40340;DHT22;26044;50.864;20.658;2023-04-24T07:22:20;15.70;96.50
40340;DHT22;26044;50.864;20.658;2023-04-24T07:24:47;15.60;96.90
40340;DHT22;26044;50.864;20.658;2023-04-24T07:27:14;15.60;96.50
40340;DHT22;26044;50.864;20.658;2023-04-24T07:29:42;15.70;97.70
40340;DHT22;26044;50.864;20.658;2023-04-24T07:32:09;15.80;98.70
40340;DHT22;26044;50.864;20.658;2023-04-24T07:34:37;16.00;95.80
40340;DHT22;26044;50.864;20.658;2023-04-24T07:37:13;16.10;95.50
40340;DHT22;26044;50.864;20.658;2023-04-24T07:39:40;16.30;92.50
40340;DHT22;26044;50.864;20.658;2023-04-24T07:42:08;16.40;90.20
40340;DHT22;26044;50.864;20.658;2023-04-24T07:44:34;16.60;91.80
40340;DHT22;26044;50.864;20.658;2023-04-24T07:47:02;16.70;91.30
40340;DHT22;26044;50.864;20.658;2023-04-24T07:49:29;16.80;86.10
40340;DHT22;26044;50.864;20.658;2023-04-24T07:51:56;16.90;90.00
40340;DHT22;26044;50.864;20.658;2023-04-24T07:54:22;17.00;78.90
40340;DHT22;26044;50.864;20.658;2023-04-24T07:56:49;17.10;79.10
40340;DHT22;26044;50.864;20.658;2023-04-24T07:59:16;17.20;79.20
40340;DHT22;26044;50.864;20.658;2023-04-24T08:01:43;17.30;79.70
40340;DHT22;26044;50.864;20.658;2023-04-24T08:04:10;17.40;78.50
40340;DHT22;26044;50.864;20.658;2023-04-24T08:06:39;17.40;78.00
40340;DHT22;26044;50.864;20.658;2023-04-24T08:09:06;17.50;76.90
40340;DHT22;26044;50.864;20.658;2023-04-24T08:11:33;17.60;77.80
40340;DHT22;26044;50.864;20.658;2023-04-24T08:14:00;17.80;77.70
40340;DHT22;26044;50.864;20.658;2023-04-24T08:16:27;17.90;72.80
40340;DHT22;26044;50.864;20.658;2023-04-24T08:18:54;18.00;68.70
40340;DHT22;26044;50.864;20.658;2023-04-24T08:21:21;18.10;67.50
40340;DHT22;26044;50.864;20.658;2023-04-24T08:23:48;18.10;66.10
40340;DHT22;26044;50.864;20.658;2023-04-24T08:26:14;18.20;65.60
40340;DHT22;26044;50.864;20.658;2023-04-24T08:28:42;18.30;67.10
40340;DHT22;26044;50.864;20.658;2023-04-24T08:31:09;18.20;64.20
40340;DHT22;26044;50.864;20.658;2023-04-24T08:33:36;18.20;66.10
40340;DHT22;26044;50.864;20.658;2023-04-24T08:36:04;18.30;66.30
40340;DHT22;26044;50.864;20.658;2023-04-24T08:38:31;18.40;65.00
40340;DHT22;26044;50.864;20.658;2023-04-24T08:40:59;18.40;65.50
40340;DHT22;26044;50.864;20.658;2023-04-24T08:43:26;18.60;61.20
40340;DHT22;26044;50.864;20.658;2023-04-24T08:45:56;18.60;63.50
40340;DHT22;26044;50.864;20.658;2023-04-24T08:48:23;18.60;60.00
40340;DHT22;26044;50.864;20.658;2023-04-24T08:50:58;18.70;62.90
40340;DHT22;26044;50.864;20.658;2023-04-24T08:53:25;18.90;59.50
40340;DHT22;26044;50.864;20.658;2023-04-24T08:55:54;18.80;56.60
40340;DHT22;26044;50.864;20.658;2023-04-24T08:58:24;18.90;55.30
40340;DHT22;26044;50.864;20.658;2023-04-24T09:00:54;19.10;57.20
40340;DHT22;26044;50.864;20.658;2023-04-24T09:03:21;19.10;53.50
40340;DHT22;26044;50.864;20.658;2023-04-24T09:05:49;19.20;56.40
40340;DHT22;26044;50.864;20.658;2023-04-24T09:08:19;19.40;55.70
40340;DHT22;26044;50.864;20.658;2023-04-24T09:10:46;19.40;54.80
40340;DHT22;26044;50.864;20.658;2023-04-24T09:13:17;19.40;54.10
40340;DHT22;26044;50.864;20.658;2023-04-24T09:15:45;19.50;51.40
40340;DHT22;26044;50.864;20.658;2023-04-24T09:18:12;19.60;55.10
40340;DHT22;26044;50.864;20.658;2023-04-24T09:23:26;19.80;48.50
40340;DHT22;26044;50.864;20.658;2023-04-24T09:25:57;19.70;46.90
40340;DHT22;26044;50.864;20.658;2023-04-24T09:28:32;19.80;48.60
40340;DHT22;26044;50.864;20.658;2023-04-24T09:31:07;19.80;48.40
40340;DHT22;26044;50.864;20.658;2023-04-24T09:33:35;19.80;46.90
40340;DHT22;26044;50.864;20.658;2023-04-24T09:36:03;19.90;45.10
40340;DHT22;26044;50.864;20.658;2023-04-24T09:38:39;19.90;43.40
40340;DHT22;26044;50.864;20.658;2023-04-24T09:41:07;19.80;42.70
40340;DHT22;26044;50.864;20.658;2023-04-24T09:43:35;20.00;47.90
40340;DHT22;26044;50.864;20.658;2023-04-24T09:46:06;20.20;47.80
40340;DHT22;26044;50.864;20.658;2023-04-24T09:48:36;20.90;45.20
40340;DHT22;26044;50.864;20.658;2023-04-24T09:51:05;21.50;46.00
40340;DHT22;26044;50.864;20.658;2023-04-24T09:53:37;22.20;44.80
40340;DHT22;26044;50.864;20.658;2023-04-24T09:56:09;22.40;43.50
40340;DHT22;26044;50.864;20.658;2023-04-24T09:58:36;23.00;43.90
40340;DHT22;26044;50.864;20.658;2023-04-24T10:01:03;22.90;43.20
40340;DHT22;26044;50.864;20.658;2023-04-24T10:03:32;22.80;45.10
40340;DHT22;26044;50.864;20.658;2023-04-24T10:06:03;22.70;41.90
40340;DHT22;26044;50.864;20.658;2023-04-24T10:08:36;22.60;42.00
40340;DHT22;26044;50.864;20.658;2023-04-24T10:11:04;22.90;43.40
40340;DHT22;26044;50.864;20.658;2023-04-24T10:13:32;23.10;43.90
40340;DHT22;26044;50.864;20.658;2023-04-24T10:16:00;23.30;43.00
40340;DHT22;26044;50.864;20.658;2023-04-24T10:18:27;23.10;43.40
40340;DHT22;26044;50.864;20.658;2023-04-24T10:20:55;22.60;41.80
40340;DHT22;26044;50.864;20.658;2023-04-24T10:23:24;22.70;41.80
40340;DHT22;26044;50.864;20.658;2023-04-24T10:25:52;22.60;43.40
40340;DHT22;26044;50.864;20.658;2023-04-24T10:28:20;22.40;40.40
40340;DHT22;26044;50.864;20.658;2023-04-24T10:30:48;22.40;42.90
40340;DHT22;26044;50.864;20.658;2023-04-24T10:33:17;22.40;45.00
40340;DHT22;26044;50.864;20.658;2023-04-24T10:35:46;22.30;44.70
40340;DHT22;26044;50.864;20.658;2023-04-24T10:38:21;22.10;43.60
40340;DHT22;26044;50.864;20.658;2023-04-24T10:40:50;21.90;42.20
40340;DHT22;26044;50.864;20.658;2023-04-24T10:43:18;21.50;40.20
40340;DHT22;26044;50.864;20.658;2023-04-24T10:46:02;21.60;41.50
40340;DHT22;26044;50.864;20.658;2023-04-24T10:48:30;21.60;43.70
40340;DHT22;26044;50.864;20.658;2023-04-24T10:50:56;21.60;44.10
40340;DHT22;26044;50.864;20.658;2023-04-24T10:53:26;21.70;41.30
40340;DHT22;26044;50.864;20.658;2023-04-24T10:56:07;21.70;41.20
40340;DHT22;26044;50.864;20.658;2023-04-24T10:58:52;21.60;42.00
40340;DHT22;26044;50.864;20.658;2023-04-24T11:01:27;21.70;44.00
40340;DHT22;26044;50.864;20.658;2023-04-24T11:03:59;21.40;40.90
40340;DHT22;26044;50.864;20.658;2023-04-24T11:06:31;21.20;42.20
40340;DHT22;26044;50.864;20.658;2023-04-24T11:09:06;21.10;43.70
40340;DHT22;26044;50.864;20.658;2023-04-24T11:11:35;21.20;44.80
40340;DHT22;26044;50.864;20.658;2023-04-24T11:14:05;21.30;43.20
40340;DHT22;26044;50.864;20.658;2023-04-24T11:21:47;21.20;43.30
40340;DHT22;26044;50.864;20.658;2023-04-24T11:27:07;21.20;41.30
40340;DHT22;26044;50.864;20.658;2023-04-24T11:35:08;21.20;44.60
40340;DHT22;26044;50.864;20.658;2023-04-24T11:37:43;21.10;42.30
40340;DHT22;26044;50.864;20.658;2023-04-24T11:40:12;21.00;43.10
40340;DHT22;26044;50.864;20.658;2023-04-24T11:42:41;20.90;42.60
40340;DHT22;26044;50.864;20.658;2023-04-24T11:47:45;21.00;43.60
40340;DHT22;26044;50.864;20.658;2023-04-24T11:50:14;20.50;42.80
40340;DHT22;26044;50.864;20.658;2023-04-24T11:52:43;20.50;44.00
40340;DHT22;26044;50.864;20.658;2023-04-24T11:57:44;20.70;44.40
40340;DHT22;26044;50.864;20.658;2023-04-24T12:00:22;20.90;45.20
40340;DHT22;26044;50.864;20.658;2023-04-24T12:02:49;20.70;44.50
40340;DHT22;26044;50.864;20.658;2023-04-24T12:05:27;20.80;44.20
40340;DHT22;26044;50.864;20.658;2023-04-24T12:07:58;20.80;44.30
40340;DHT22;26044;50.864;20.658;2023-04-24T12:10:27;20.80;42.20
40340;DHT22;26044;50.864;20.658;2023-04-24T12:12:56;20.90;44.60
40340;DHT22;26044;50.864;20.658;2023-04-24T12:15:25;20.80;42.10
40340;DHT22;26044;50.864;20.658;2023-04-24T12:17:54;20.90;45.50
40340;DHT22;26044;50.864;20.658;2023-04-24T12:20:29;20.70;42.30
40340;DHT22;26044;50.864;20.658;2023-04-24T12:23:01;20.60;43.10
40340;DHT22;26044;50.864;20.658;2023-04-24T12:25:30;20.60;43.70
40340;DHT22;26044;50.864;20.658;2023-04-24T12:30:32;20.60;47.70
40340;DHT22;26044;50.864;20.658;2023-04-24T12:33:02;20.60;47.60
40340;DHT22;26044;50.864;20.658;2023-04-24T12:35:31;20.80;48.90
40340;DHT22;26044;50.864;20.658;2023-04-24T12:38:13;21.00;50.10
40340;DHT22;26044;50.864;20.658;2023-04-24T12:40:43;21.00;48.50
40340;DHT22;26044;50.864;20.658;2023-04-24T12:43:18;21.00;47.70
40340;DHT22;26044;50.864;20.658;2023-04-24T12:45:47;21.20;46.50
40340;DHT22;26044;50.864;20.658;2023-04-24T12:48:16;21.20;43.50
40340;DHT22;26044;50.864;20.658;2023-04-24T12:50:43;21.30;43.60
40340;DHT22;26044;50.864;20.658;2023-04-24T12:53:13;21.30;44.30
40340;DHT22;26044;50.864;20.658;2023-04-24T12:55:40;21.30;43.90
40340;DHT22;26044;50.864;20.658;2023-04-24T12:58:07;21.30;44.40
40340;DHT22;26044;50.864;20.658;2023-04-24T13:00:36;21.20;44.60
40340;DHT22;26044;50.864;20.658;2023-04-24T13:03:03;21.20;45.80
40340;DHT22;26044;50.864;20.658;2023-04-24T13:05:30;21.20;47.50
40340;DHT22;26044;50.864;20.658;2023-04-24T13:07:57;21.00;46.60
40340;DHT22;26044;50.864;20.658;2023-04-24T13:10:24;20.90;45.80
40340;DHT22;26044;50.864;20.658;2023-04-24T13:12:51;20.70;46.10
40340;DHT22;26044;50.864;20.658;2023-04-24T13:15:18;20.50;46.40
40340;DHT22;26044;50.864;20.658;2023-04-24T13:17:45;20.40;47.10
40340;DHT22;26044;50.864;20.658;2023-04-24T13:20:12;20.60;47.80
40340;DHT22;26044;50.864;20.658;2023-04-24T13:22:41;20.60;47.50
40340;DHT22;26044;50.864;20.658;2023-04-24T13:25:08;20.70;48.00
40340;DHT22;26044;50.864;20.658;2023-04-24T13:30:03;20.90;48.30
40340;DHT22;26044;50.864;20.658;2023-04-24T13:32:30;20.90;46.10
40340;DHT22;26044;50.864;20.658;2023-04-24T13:34:58;20.70;45.20
40340;DHT22;26044;50.864;20.658;2023-04-24T13:37:25;20.80;44.20
40340;DHT22;26044;50.864;20.658;2023-04-24T13:39:52;20.80;45.60
40340;DHT22;26044;50.864;20.658;2023-04-24T13:42:19;20.80;44.40
40340;DHT22;26044;50.864;20.658;2023-04-24T13:44:46;20.90;45.50
40340;DHT22;26044;50.864;20.658;2023-04-24T13:47:14;20.90;43.70
40340;DHT22;26044;50.864;20.658;2023-04-24T13:49:41;20.90;45.10
40340;DHT22;26044;50.864;20.658;2023-04-24T13:52:08;20.70;43.90
40340;DHT22;26044;50.864;20.658;2023-04-24T13:54:38;20.70;43.60
40340;DHT22;26044;50.864;20.658;2023-04-24T13:57:06;20.70;43.40
40340;DHT22;26044;50.864;20.658;2023-04-24T13:59:33;20.60;42.70
40340;DHT22;26044;50.864;20.658;2023-04-24T14:01:59;20.50;43.40
40340;DHT22;26044;50.864;20.658;2023-04-24T14:04:26;20.50;44.50
40340;DHT22;26044;50.864;20.658;2023-04-24T14:06:53;20.50;44.00
40340;DHT22;26044;50.864;20.658;2023-04-24T14:09:20;20.60;46.40
40340;DHT22;26044;50.864;20.658;2023-04-24T14:11:48;20.60;44.50
40340;DHT22;26044;50.864;20.658;2023-04-24T14:14:15;20.60;44.80
40340;DHT22;26044;50.864;20.658;2023-04-24T14:16:42;20.60;46.50
40340;DHT22;26044;50.864;20.658;2023-04-24T14:19:09;20.60;45.80
40340;DHT22;26044;50.864;20.658;2023-04-24T14:21:35;20.50;46.00
40340;DHT22;26044;50.864;20.658;2023-04-24T14:24:02;20.40;47.20
40340;DHT22;26044;50.864;20.658;2023-04-24T14:26:29;20.40;47.40
40340;DHT22;26044;50.864;20.658;2023-04-24T14:28:56;20.30;47.40
40340;DHT22;26044;50.864;20.658;2023-04-24T14:31:41;20.40;47.90
40340;DHT22;26044;50.864;20.658;2023-04-24T14:34:09;20.40;47.50
40340;DHT22;26044;50.864;20.658;2023-04-24T14:36:35;20.30;48.10
40340;DHT22;26044;50.864;20.658;2023-04-24T14:39:02;20.20;47.50
40340;DHT22;26044;50.864;20.658;2023-04-24T14:41:33;20.20;48.70
40340;DHT22;26044;50.864;20.658;2023-04-24T14:44:03;20.20;48.70
40340;DHT22;26044;50.864;20.658;2023-04-24T14:46:30;20.10;48.70
40340;DHT22;26044;50.864;20.658;2023-04-24T14:48:57;20.00;49.10
40340;DHT22;26044;50.864;20.658;2023-04-24T14:51:24;19.90;48.90
40340;DHT22;26044;50.864;20.658;2023-04-24T14:53:52;19.90;50.20
40340;DHT22;26044;50.864;20.658;2023-04-24T14:56:18;19.70;49.80
40340;DHT22;26044;50.864;20.658;2023-04-24T14:58:45;19.70;50.60
40340;DHT22;26044;50.864;20.658;2023-04-24T15:01:12;19.70;49.70
40340;DHT22;26044;50.864;20.658;2023-04-24T15:03:39;19.70;50.50
40340;DHT22;26044;50.864;20.658;2023-04-24T15:06:06;19.70;52.40
40340;DHT22;26044;50.864;20.658;2023-04-24T15:08:32;19.60;55.80
40340;DHT22;26044;50.864;20.658;2023-04-24T15:10:59;19.40;55.70
40340;DHT22;26044;50.864;20.658;2023-04-24T15:13:26;19.50;54.80
40340;DHT22;26044;50.864;20.658;2023-04-24T15:15:53;19.50;53.60
40340;DHT22;26044;50.864;20.658;2023-04-24T15:18:19;19.50;53.00
40340;DHT22;26044;50.864;20.658;2023-04-24T15:20:46;19.40;53.10
40340;DHT22;26044;50.864;20.658;2023-04-24T15:23:13;19.40;53.80
40340;DHT22;26044;50.864;20.658;2023-04-24T15:25:40;19.30;53.80
40340;DHT22;26044;50.864;20.658;2023-04-24T15:28:07;19.30;53.90
40340;DHT22;26044;50.864;20.658;2023-04-24T15:30:34;19.30;54.40
40340;DHT22;26044;50.864;20.658;2023-04-24T15:33:00;19.20;52.90
40340;DHT22;26044;50.864;20.658;2023-04-24T15:35:28;19.20;53.00
40340;DHT22;26044;50.864;20.658;2023-04-24T15:37:55;19.20;54.40
40340;DHT22;26044;50.864;20.658;2023-04-24T15:40:22;19.00;53.40
40340;DHT22;26044;50.864;20.658;2023-04-24T15:42:48;19.00;53.50
40340;DHT22;26044;50.864;20.658;2023-04-24T15:45:15;18.90;54.30
40340;DHT22;26044;50.864;20.658;2023-04-24T15:47:44;18.80;56.10
40340;DHT22;26044;50.864;20.658;2023-04-24T15:50:12;18.60;58.30
40340;DHT22;26044;50.864;20.658;2023-04-24T15:52:40;18.50;59.20